createdAt,value
2022-10-15T00:01:58.325Z,97653.34
2022-10-15T00:04:27.979Z,97647.09
2022-10-15T00:06:57.670Z,97652.53
2022-10-15T00:09:27.385Z,97647.09
2022-10-15T00:11:57.218Z,97650.22
2022-10-15T00:14:26.876Z,97647.03
2022-10-15T00:16:59.169Z,97657.25
2022-10-15T00:19:30.306Z,97649.34
2022-10-15T00:24:49.559Z,97644.53
2022-10-15T00:27:19.415Z,97642.22
2022-10-15T00:29:49.263Z,97644.09
2022-10-15T00:32:21.977Z,97644.59
2022-10-15T00:34:51.879Z,97642.09
2022-10-15T00:37:21.574Z,97637.81
2022-10-15T00:39:51.398Z,97630.34
2022-10-15T00:42:21.368Z,97635.47
2022-10-15T00:44:57.894Z,97633.53
2022-10-15T00:47:37.282Z,97642.09
2022-10-15T00:50:10.519Z,97626.06
2022-10-15T00:52:49.001Z,97626.88
2022-10-15T00:55:23.022Z,97628.16
2022-10-15T00:57:53.795Z,97628.16
2022-10-15T01:00:23.946Z,97618.34
2022-10-15T01:02:56.203Z,97620.97
2022-10-15T01:05:27.139Z,97615.06
2022-10-15T01:07:56.723Z,97608.66
2022-10-15T01:10:33.615Z,97609.88
2022-10-15T01:13:14.488Z,97609.59
2022-10-15T01:15:52.300Z,97600.13
2022-10-15T01:18:31.859Z,97599.66
2022-10-15T01:21:10.399Z,97605.09
2022-10-15T01:24:02.001Z,97596.53
2022-10-15T01:27:04.275Z,97594.25
2022-10-15T01:30:09.109Z,97590.19
2022-10-15T01:32:46.702Z,97594.25
2022-10-15T01:35:24.148Z,97594.56
2022-10-15T01:37:58.592Z,97582.63
2022-10-15T01:40:34.832Z,97590.19
2022-10-15T01:43:09.987Z,97589.41
2022-10-15T01:45:46.753Z,97583.41
2022-10-15T01:48:21.449Z,97582.28
2022-10-15T01:50:55.828Z,97586.97
2022-10-15T01:53:29.031Z,97581.41
2022-10-15T01:56:01.508Z,97575.84
2022-10-15T01:58:33.636Z,97568.88
2022-10-15T02:01:03.604Z,97573.50
2022-10-15T02:03:45.853Z,97574.66
2022-10-15T02:06:23.075Z,97582.78
2022-10-15T02:09:04.740Z,97576.47
2022-10-15T02:11:53.378Z,97574.53
2022-10-15T02:14:30.633Z,97580.50
2022-10-15T02:17:06.874Z,97574.50
2022-10-15T02:19:46.769Z,97574.84
2022-10-15T02:22:20.453Z,97578.41
2022-10-15T02:24:55.981Z,97572.59
2022-10-15T02:27:27.258Z,97575.66
2022-10-15T02:29:59.292Z,97577.72
2022-10-15T02:32:30.188Z,97580.19
2022-10-15T02:35:03.924Z,97581.34
2022-10-15T02:37:35.269Z,97586.00
2022-10-15T02:40:05.012Z,97574.59
2022-10-15T02:42:35.242Z,97584.81
2022-10-15T02:45:04.979Z,97572.59
2022-10-15T02:47:34.677Z,97583.91
2022-10-15T02:50:07.526Z,97585.91
2022-10-15T02:52:37.200Z,97584.75
2022-10-15T02:55:07.302Z,97588.72
2022-10-15T02:57:37.230Z,97585.22
2022-10-15T03:00:07.702Z,97588.41
2022-10-15T03:02:37.387Z,97581.59
2022-10-15T03:05:10.583Z,97589.09
2022-10-15T03:07:40.421Z,97589.84
2022-10-15T03:10:11.254Z,97599.66
2022-10-15T03:12:40.946Z,97599.19
2022-10-15T03:15:12.035Z,97597.56
2022-10-15T03:17:41.634Z,97603.00
2022-10-15T03:20:14.355Z,97605.75
2022-10-15T03:22:43.990Z,97595.28
2022-10-15T03:25:13.738Z,97594.09
2022-10-15T03:27:43.570Z,97598.81
2022-10-15T03:30:14.194Z,97600.41
2022-10-15T03:35:36.575Z,97594.34
2022-10-15T03:38:06.231Z,97600.25
2022-10-15T03:40:36.742Z,97606.06
2022-10-15T03:43:06.966Z,97605.25
2022-10-15T03:45:36.644Z,97610.00
2022-10-15T03:48:06.637Z,97610.41
2022-10-15T03:50:38.877Z,97608.50
2022-10-15T03:53:08.888Z,97613.53
2022-10-15T03:55:38.548Z,97616.28
2022-10-15T03:58:08.190Z,97615.91
2022-10-15T04:00:37.825Z,97618.75
2022-10-15T04:03:07.496Z,97619.03
2022-10-15T04:05:39.760Z,97628.41
2022-10-15T04:08:09.837Z,97630.03
2022-10-15T04:10:39.539Z,97631.19
2022-10-15T04:13:09.301Z,97644.25
2022-10-15T04:15:42.261Z,97633.53
2022-10-15T04:18:12.019Z,97630.34
2022-10-15T04:20:44.258Z,97630.72
2022-10-15T04:23:13.984Z,97634.25
2022-10-15T04:25:43.646Z,97636.59
2022-10-15T04:28:13.353Z,97638.88
2022-10-15T04:30:43.084Z,97643.59
2022-10-15T04:33:12.800Z,97645.63
2022-10-15T04:35:45.098Z,97650.72
2022-10-15T04:38:14.753Z,97639.72
2022-10-15T04:40:44.422Z,97649.44
2022-10-15T04:43:14.073Z,97657.69
2022-10-15T04:45:43.744Z,97655.69
2022-10-15T04:48:13.384Z,97660.88
2022-10-15T04:50:45.703Z,97654.53
2022-10-15T04:53:15.329Z,97652.50
2022-10-15T04:55:45.025Z,97655.25
2022-10-15T04:58:14.796Z,97664.00
2022-10-15T05:00:45.166Z,97669.06
2022-10-15T05:03:14.800Z,97663.16
2022-10-15T05:05:47.103Z,97659.63
2022-10-15T05:08:16.731Z,97663.56
2022-10-15T05:10:46.414Z,97669.00
2022-10-15T05:13:16.634Z,97665.09
2022-10-15T05:15:46.390Z,97658.00
2022-10-15T05:18:16.091Z,97661.13
2022-10-15T05:20:48.363Z,97674.81
2022-10-15T05:23:18.152Z,97678.81
2022-10-15T05:25:51.661Z,97681.56
2022-10-15T05:28:23.800Z,97679.53
2022-10-15T05:30:53.483Z,97683.53
2022-10-15T05:33:23.184Z,97694.97
2022-10-15T05:35:55.475Z,97694.53
2022-10-15T05:38:25.163Z,97705.50
2022-10-15T05:40:54.803Z,97704.34
2022-10-15T05:43:24.464Z,97709.75
2022-10-15T05:45:57.053Z,97712.09
2022-10-15T05:48:27.118Z,97709.28
2022-10-15T05:51:04.250Z,97704.63
2022-10-15T05:53:34.198Z,97710.91
2022-10-15T05:56:04.440Z,97715.66
2022-10-15T05:58:37.407Z,97715.25
2022-10-15T06:01:09.624Z,97713.56
2022-10-15T06:03:39.337Z,97720.22
2022-10-15T06:06:17.131Z,97727.47
2022-10-15T06:08:47.463Z,97734.44
2022-10-15T06:11:18.019Z,97743.94
2022-10-15T06:13:48.998Z,97742.78
2022-10-15T06:16:23.682Z,97737.28
2022-10-15T06:18:54.962Z,97740.81
2022-10-15T06:21:27.306Z,97745.44
2022-10-15T06:23:56.952Z,97753.72
2022-10-15T06:26:26.627Z,97758.06
2022-10-15T06:28:56.340Z,97763.56
2022-10-15T06:31:26.039Z,97762.66
2022-10-15T06:33:55.679Z,97766.31
2022-10-15T06:36:28.307Z,97770.47
2022-10-15T06:38:57.925Z,97778.47
2022-10-15T06:41:27.605Z,97782.16
2022-10-15T06:43:57.229Z,97791.88
2022-10-15T06:46:26.970Z,97798.22
2022-10-15T06:48:56.713Z,97799.69
2022-10-15T06:51:29.042Z,97805.16
2022-10-15T06:53:58.707Z,97809.00
2022-10-15T06:56:28.543Z,97811.59
2022-10-15T06:58:58.561Z,97814.66
2022-10-15T07:01:28.825Z,97817.25
2022-10-15T07:03:58.478Z,97815.41
2022-10-15T07:06:30.765Z,97821.63
2022-10-15T07:09:00.542Z,97821.72
2022-10-15T07:11:30.285Z,97823.22
2022-10-15T07:14:00.371Z,97826.41
2022-10-15T07:16:30.466Z,97834.97
2022-10-15T07:19:00.266Z,97834.63
2022-10-15T07:21:32.521Z,97840.59
2022-10-15T07:24:02.274Z,97853.50
2022-10-15T07:26:32.050Z,97851.53
2022-10-15T07:29:01.753Z,97842.56
2022-10-15T07:31:31.685Z,97854.72
2022-10-15T07:34:01.525Z,97852.19
2022-10-15T07:36:33.708Z,97856.19
2022-10-15T07:39:03.793Z,97859.34
2022-10-15T07:41:33.832Z,97852.69
2022-10-15T07:44:03.928Z,97867.44
2022-10-15T07:46:33.584Z,97866.22
2022-10-15T07:49:03.374Z,97872.34
2022-10-15T07:51:35.651Z,97870.81
2022-10-15T07:54:05.300Z,97872.66
2022-10-15T07:56:34.889Z,97872.19
2022-10-15T07:59:04.552Z,97881.66
2022-10-15T08:01:34.214Z,97882.50
2022-10-15T08:04:03.873Z,97878.44
2022-10-15T08:06:37.656Z,97883.28
2022-10-15T08:09:07.724Z,97884.03
2022-10-15T08:11:37.402Z,97893.59
2022-10-15T08:14:07.066Z,97893.22
2022-10-15T08:16:36.695Z,97893.53
2022-10-15T08:19:06.713Z,97896.41
2022-10-15T08:21:40.222Z,97899.47
2022-10-15T08:24:11.737Z,97905.47
2022-10-15T08:26:41.368Z,97899.34
2022-10-15T08:29:11.029Z,97895.28
2022-10-15T08:31:40.960Z,97890.63
2022-10-15T08:34:10.761Z,97900.31
2022-10-15T08:36:43.119Z,97896.88
2022-10-15T08:39:12.880Z,97888.47
2022-10-15T08:41:47.116Z,97898.19
2022-10-15T08:44:23.340Z,97896.72
2022-10-15T08:46:58.027Z,97899.78
2022-10-15T08:49:38.543Z,97894.16
2022-10-15T08:52:25.351Z,97899.78
2022-10-15T08:54:55.975Z,97900.34
2022-10-15T08:57:44.228Z,97904.38
2022-10-15T09:00:20.310Z,97903.38
2022-10-15T09:02:57.811Z,97900.25
2022-10-15T09:05:37.604Z,97899.94
2022-10-15T09:08:21.740Z,97899.94
2022-10-15T09:10:54.913Z,97892.09
2022-10-15T09:13:30.851Z,97893.69
2022-10-15T09:16:05.460Z,97898.44
2022-10-15T09:18:38.221Z,97909.03
2022-10-15T09:21:09.354Z,97899.81
2022-10-15T09:23:43.690Z,97905.91
2022-10-15T09:26:24.530Z,97911.91
2022-10-15T09:29:02.676Z,97903.09
2022-10-15T09:31:37.719Z,97916.34
2022-10-15T09:34:16.681Z,97916.69
2022-10-15T09:36:53.356Z,97906.06
2022-10-15T09:39:41.897Z,97913.41
2022-10-15T09:42:26.831Z,97925.59
2022-10-15T09:45:00.672Z,97923.97
2022-10-15T09:47:33.238Z,97931.72
2022-10-15T09:50:03.868Z,97929.00
2022-10-15T09:52:48.254Z,97937.16
2022-10-15T09:55:35.913Z,97924.13
2022-10-15T09:58:09.731Z,97930.72
2022-10-15T10:00:55.669Z,97923.50
2022-10-15T10:03:26.926Z,97931.94
2022-10-15T10:06:04.617Z,97926.22
2022-10-15T10:08:40.863Z,97926.72
2022-10-15T10:11:14.150Z,97928.97
2022-10-15T10:13:48.828Z,97928.53
2022-10-15T10:16:21.229Z,97927.19
2022-10-15T10:19:06.304Z,97932.50
2022-10-15T10:21:39.358Z,97923.75
2022-10-15T10:24:32.164Z,97927.31
2022-10-15T10:29:44.097Z,97930.00
2022-10-15T10:32:20.235Z,97940.75
2022-10-15T10:34:52.855Z,97926.91
2022-10-15T10:37:24.728Z,97933.94
2022-10-15T10:40:00.181Z,97931.41
2022-10-15T10:42:38.365Z,97937.69
2022-10-15T10:45:21.502Z,97933.59
2022-10-15T10:47:51.261Z,97944.59
2022-10-15T10:50:40.799Z,97941.38
2022-10-15T10:53:23.275Z,97953.47
2022-10-15T10:55:54.756Z,97952.81
2022-10-15T10:58:30.235Z,97946.91
2022-10-15T11:01:01.086Z,97949.16
2022-10-15T11:03:37.672Z,97954.56
2022-10-15T11:06:33.146Z,97939.97
2022-10-15T11:09:16.601Z,97944.03
2022-10-15T11:11:58.593Z,97939.22
2022-10-15T11:14:45.979Z,97945.78
2022-10-15T11:17:26.889Z,97931.56
2022-10-15T11:20:26.881Z,97942.41
2022-10-15T11:23:08.169Z,97932.03
2022-10-15T11:25:45.840Z,97937.28
2022-10-15T11:28:38.241Z,97934.66
2022-10-15T11:31:19.954Z,97934.47
2022-10-15T11:34:01.550Z,97937.09
2022-10-15T11:36:50.796Z,97931.47
2022-10-15T11:39:37.554Z,97930.28
2022-10-15T11:42:16.299Z,97935.69
2022-10-15T11:45:03.852Z,97923.78
2022-10-15T11:47:50.134Z,97921.44
2022-10-15T11:50:30.034Z,97915.53
2022-10-15T11:53:12.111Z,97921.78
2022-10-15T11:55:47.260Z,97912.72
2022-10-15T11:58:23.605Z,97913.50
2022-10-15T12:00:58.076Z,97902.34
2022-10-15T12:03:34.401Z,97903.50
2022-10-15T12:06:08.257Z,97901.41
2022-10-15T12:08:40.207Z,97902.84
2022-10-15T12:11:23.794Z,97909.31
2022-10-15T12:13:59.381Z,97909.63
2022-10-15T12:16:36.606Z,97892.56
2022-10-15T12:19:16.753Z,97902.13
2022-10-15T12:22:06.887Z,97894.34
2022-10-15T12:24:57.830Z,97897.66
2022-10-15T12:27:34.821Z,97884.56
2022-10-15T12:30:25.975Z,97898.16
2022-10-15T12:32:56.700Z,97908.78
2022-10-15T12:35:36.344Z,97892.09
2022-10-15T12:38:21.330Z,97899.13
2022-10-15T12:40:59.884Z,97903.19
2022-10-15T12:43:30.773Z,97905.63
2022-10-15T12:46:03.177Z,97908.47
2022-10-15T12:48:36.428Z,97905.47
2022-10-15T12:51:35.632Z,97899.41
2022-10-15T12:54:40.373Z,97899.00
2022-10-15T12:57:40.022Z,97905.09
2022-10-15T13:00:33.008Z,97898.34
2022-10-15T13:03:27.031Z,97887.34
2022-10-15T13:05:57.545Z,97889.84
2022-10-15T13:08:30.512Z,97889.22
2022-10-15T13:11:03.979Z,97888.06
2022-10-15T13:13:36.851Z,97886.16
2022-10-15T13:16:11.223Z,97889.16
2022-10-15T13:18:44.585Z,97880.19
2022-10-15T13:21:14.498Z,97881.81
2022-10-15T13:23:49.048Z,97889.91
2022-10-15T13:26:27.831Z,97890.94
2022-10-15T13:29:00.716Z,97896.06
2022-10-15T13:31:33.114Z,97897.34
2022-10-15T13:34:08.566Z,97896.22
2022-10-15T13:36:38.793Z,97892.25
2022-10-15T13:39:10.845Z,97890.56
2022-10-15T13:41:43.383Z,97889.56
2022-10-15T13:44:24.986Z,97885.94
2022-10-15T13:46:57.907Z,97895.84
2022-10-15T13:49:28.931Z,97899.34
2022-10-15T13:51:59.163Z,97890.84
2022-10-15T13:54:33.211Z,97898.97
2022-10-15T13:57:05.730Z,97910.47
2022-10-15T13:59:35.556Z,97896.16
2022-10-15T14:02:06.047Z,97895.66
2022-10-15T14:04:36.181Z,97899.34
2022-10-15T14:07:21.548Z,97899.19
2022-10-15T14:09:52.042Z,97903.09
2022-10-15T14:12:24.594Z,97898.34
2022-10-15T14:14:54.425Z,97907.91
2022-10-15T14:17:27.419Z,97902.50
2022-10-15T14:20:25.883Z,97901.78
2022-10-15T14:22:52.110Z,97912.22
2022-10-15T14:25:26.730Z,97908.72
2022-10-15T14:27:59.194Z,97896.78
2022-10-15T14:30:37.350Z,97905.34
2022-10-15T14:33:07.341Z,97907.91
2022-10-15T14:35:39.046Z,97903.44
2022-10-15T14:38:19.304Z,97903.44
2022-10-15T14:41:04.852Z,97912.94
2022-10-15T14:43:41.225Z,97900.97
2022-10-15T14:46:18.685Z,97902.16
2022-10-15T14:48:48.656Z,97897.13
2022-10-15T14:51:26.706Z,97902.72
2022-10-15T14:53:57.016Z,97907.09
2022-10-15T14:56:33.149Z,97913.44
2022-10-15T14:59:09.548Z,97898.50
2022-10-15T15:01:39.373Z,97896.59
2022-10-15T15:04:10.232Z,97893.75
2022-10-15T15:06:39.859Z,97883.19
2022-10-15T15:09:11.339Z,97887.78
2022-10-15T15:11:41.224Z,97880.94
2022-10-15T15:14:26.775Z,97885.53
2022-10-15T15:16:56.568Z,97889.91
2022-10-15T15:19:26.194Z,97879.69
2022-10-15T15:21:56.292Z,97878.59
2022-10-15T15:24:26.015Z,97884.06
2022-10-15T15:26:55.702Z,97877.31
2022-10-15T15:29:29.410Z,97884.13
2022-10-15T15:31:59.422Z,97884.59
2022-10-15T15:34:29.279Z,97893.25
2022-10-15T15:36:58.891Z,97892.34
2022-10-15T15:39:28.535Z,97886.66
2022-10-15T15:41:58.127Z,97886.66
2022-10-15T15:44:30.850Z,97885.31
2022-10-15T15:47:00.698Z,97891.31
2022-10-15T15:49:30.513Z,97883.63
2022-10-15T15:52:10.269Z,97886.97
2022-10-15T15:54:40.040Z,97892.50
2022-10-15T15:57:09.948Z,97893.69
2022-10-15T15:59:42.573Z,97891.75
2022-10-15T16:02:16.095Z,97897.34
2022-10-15T16:04:47.978Z,97891.47
2022-10-15T16:07:19.533Z,97886.22
2022-10-15T16:09:49.446Z,97891.31
2022-10-15T16:12:19.190Z,97883.97
2022-10-15T16:14:56.192Z,97899.19
2022-10-15T16:17:26.292Z,97901.59
2022-10-15T16:20:00.698Z,97914.97
2022-10-15T16:22:30.621Z,97914.19
2022-10-15T16:25:00.439Z,97917.75
2022-10-15T16:27:30.169Z,97920.78
2022-10-15T16:30:02.653Z,97927.72
2022-10-15T16:32:32.379Z,97926.50
2022-10-15T16:35:02.111Z,97936.91
2022-10-15T16:37:31.829Z,97938.59
2022-10-15T16:40:01.904Z,97947.53
2022-10-15T16:42:31.748Z,97952.28
2022-10-15T16:45:06.321Z,97938.19
2022-10-15T16:47:37.356Z,97954.09
2022-10-15T16:50:13.048Z,97954.84
2022-10-15T16:52:44.994Z,97966.00
2022-10-15T16:55:41.914Z,97957.72
2022-10-15T16:58:10.152Z,97965.22
2022-10-15T17:00:43.176Z,97972.47
2022-10-15T17:03:13.934Z,97971.03
2022-10-15T17:05:44.076Z,97984.38
2022-10-15T17:08:15.768Z,97974.91
2022-10-15T17:10:47.268Z,97981.91
2022-10-15T17:13:16.981Z,97972.63
2022-10-15T17:15:49.894Z,97986.53
2022-10-15T17:18:19.601Z,97989.56
2022-10-15T17:20:50.624Z,97993.94
2022-10-15T17:23:20.350Z,97999.47
2022-10-15T17:25:50.030Z,98008.81
2022-10-15T17:30:51.871Z,98012.78
2022-10-15T17:33:21.497Z,98011.66
2022-10-15T17:35:51.108Z,98012.47
2022-10-15T17:38:22.604Z,98017.22
2022-10-15T17:40:52.469Z,98015.19
2022-10-15T17:43:22.088Z,98016.03
2022-10-15T17:46:01.553Z,98017.75
2022-10-15T17:48:31.817Z,98014.47
2022-10-15T17:51:02.353Z,98017.75
2022-10-15T17:53:32.715Z,98019.78
2022-10-15T17:58:52.996Z,98029.19
2022-10-15T18:01:39.289Z,98028.88
2022-10-15T18:04:18.852Z,98036.69
2022-10-15T18:06:48.536Z,98020.19
2022-10-15T18:09:18.229Z,98030.41
2022-10-15T18:11:49.181Z,98030.75
2022-10-15T18:17:11.166Z,98029.59
2022-10-15T18:19:41.087Z,98030.88
2022-10-15T18:22:10.763Z,98036.69
2022-10-15T18:24:40.465Z,98037.84
2022-10-15T18:27:10.331Z,98034.25
2022-10-15T18:29:40.195Z,98033.34
2022-10-15T18:32:12.653Z,98039.59
2022-10-15T18:34:42.322Z,98037.97
2022-10-15T18:37:11.988Z,98035.03
2022-10-15T18:39:41.805Z,98040.84
2022-10-15T18:42:11.468Z,98038.22
2022-10-15T18:44:41.516Z,98046.34
2022-10-15T18:47:13.838Z,98036.06
2022-10-15T18:49:43.531Z,98038.53
2022-10-15T18:52:21.856Z,98046.81
2022-10-15T18:55:03.153Z,98028.28
2022-10-15T18:57:34.939Z,98032.47
2022-10-15T19:00:04.996Z,98041.91
2022-10-15T19:02:37.269Z,98041.91
2022-10-15T19:05:07.881Z,98041.88
2022-10-15T19:07:37.617Z,98043.44
2022-10-15T19:10:08.259Z,98053.28
2022-10-15T19:12:46.168Z,98049.03
2022-10-15T19:15:16.037Z,98056.81
2022-10-15T19:17:48.659Z,98046.63
2022-10-15T19:20:18.465Z,98060.75
2022-10-15T19:22:48.285Z,98072.63
2022-10-15T19:25:18.339Z,98069.03
2022-10-15T19:27:48.726Z,98065.94
2022-10-15T19:30:18.645Z,98064.41
2022-10-15T19:32:52.146Z,98064.72
2022-10-15T19:35:21.833Z,98059.31
2022-10-15T19:37:53.171Z,98054.63
2022-10-15T19:40:23.004Z,98060.16
2022-10-15T19:42:52.890Z,98058.69
2022-10-15T19:45:22.536Z,98068.94
2022-10-15T19:48:03.672Z,98071.72
2022-10-15T19:50:33.672Z,98067.34
2022-10-15T19:53:03.840Z,98054.38
2022-10-15T19:55:33.971Z,98055.94
2022-10-15T19:58:04.027Z,98058.63
2022-10-15T20:00:33.946Z,98059.53
2022-10-15T20:03:08.306Z,98063.19
2022-10-15T20:05:37.987Z,98069.88
2022-10-15T20:08:08.375Z,98071.53
2022-10-15T20:10:38.901Z,98071.97
2022-10-15T20:13:08.623Z,98075.59
2022-10-15T20:15:38.361Z,98080.84
2022-10-15T20:18:10.850Z,98077.00
2022-10-15T20:20:42.225Z,98082.06
2022-10-15T20:23:13.735Z,98078.16
2022-10-15T20:25:46.465Z,98102.34
2022-10-15T20:28:18.816Z,98096.47
2022-10-15T20:30:50.115Z,98103.91
2022-10-15T20:33:22.620Z,98114.94
2022-10-15T20:35:52.916Z,98115.69
2022-10-15T20:38:22.950Z,98125.13
2022-10-15T20:40:52.637Z,98119.25
2022-10-15T20:43:23.804Z,98138.81
2022-10-15T20:45:54.914Z,98135.38
2022-10-15T20:48:29.309Z,98138.91
2022-10-15T20:50:59.138Z,98140.84
2022-10-15T20:53:30.162Z,98139.97
2022-10-15T20:56:01.374Z,98148.19
2022-10-15T20:58:31.970Z,98141.63
2022-10-15T21:01:02.894Z,98140.75
2022-10-15T21:03:35.258Z,98138.03
2022-10-15T21:06:05.080Z,98143.09
2022-10-15T21:08:34.793Z,98129.84
2022-10-15T21:11:05.767Z,98142.00
2022-10-15T21:13:35.794Z,98136.38
2022-10-15T21:16:07.425Z,98152.59
2022-10-15T21:18:40.038Z,98159.28
2022-10-15T21:21:11.697Z,98150.53
2022-10-15T21:23:42.870Z,98150.53
2022-10-15T21:26:14.407Z,98143.94
2022-10-15T21:28:45.351Z,98149.91
2022-10-15T21:31:16.959Z,98151.06
2022-10-15T21:33:49.191Z,98153.38
2022-10-15T21:36:22.193Z,98153.53
2022-10-15T21:38:54.712Z,98153.63
2022-10-15T21:41:25.073Z,98149.69
2022-10-15T21:43:54.737Z,98144.63
2022-10-15T21:46:24.519Z,98146.16
2022-10-15T21:48:57.460Z,98151.94
2022-10-15T21:51:30.070Z,98156.66
2022-10-15T21:54:01.150Z,98173.97
2022-10-15T21:56:31.690Z,98171.59
2022-10-15T21:59:02.819Z,98170.06
2022-10-15T22:01:34.730Z,98164.13
2022-10-15T22:04:08.575Z,98164.13
2022-10-15T22:06:40.144Z,98151.19
2022-10-15T22:09:11.670Z,98150.50
2022-10-15T22:11:42.833Z,98157.13
2022-10-15T22:14:14.525Z,98147.19
2022-10-15T22:16:45.353Z,98160.94
2022-10-15T22:19:19.235Z,98154.28
2022-10-15T22:21:48.956Z,98146.41
2022-10-15T22:24:21.097Z,98148.84
2022-10-15T22:26:52.929Z,98148.78
2022-10-15T22:29:24.752Z,98152.28
2022-10-15T22:31:55.465Z,98156.59
2022-10-15T22:34:27.796Z,98161.31
2022-10-15T22:36:57.515Z,98167.28
2022-10-15T22:39:27.203Z,98169.19
2022-10-15T22:41:56.884Z,98171.63
2022-10-15T22:44:26.573Z,98170.84
2022-10-15T22:46:56.351Z,98178.41
2022-10-15T22:49:28.753Z,98176.41
2022-10-15T22:51:58.376Z,98171.72
2022-10-15T22:54:28.095Z,98171.06
2022-10-15T22:56:57.791Z,98178.13
2022-10-15T22:59:27.470Z,98176.88
2022-10-15T23:01:57.156Z,98184.75
2022-10-15T23:04:29.483Z,98192.38
2022-10-15T23:06:59.139Z,98183.34
2022-10-15T23:09:28.869Z,98187.31
2022-10-15T23:11:58.604Z,98175.16
2022-10-15T23:14:28.251Z,98165.63
2022-10-15T23:16:57.958Z,98180.56
2022-10-15T23:19:30.314Z,98176.66
2022-10-15T23:22:01.391Z,98170.47
2022-10-15T23:24:31.871Z,98170.00
2022-10-15T23:27:01.545Z,98162.44
2022-10-15T23:29:31.261Z,98169.44
2022-10-15T23:32:00.971Z,98180.56
2022-10-15T23:34:33.416Z,98181.72
2022-10-15T23:37:03.196Z,98176.59
2022-10-15T23:39:32.919Z,98190.81
2022-10-15T23:42:02.550Z,98184.03
2022-10-15T23:44:32.331Z,98177.75
2022-10-15T23:47:02.119Z,98182.44
2022-10-15T23:49:34.362Z,98178.22
2022-10-15T23:52:04.100Z,98184.38
2022-10-15T23:54:33.818Z,98176.22
2022-10-15T23:57:03.628Z,98184.09
2022-10-15T23:59:33.358Z,98190.31
